Time;durP1;ratioP1;P1;durP2;ratioP2;P2;SDS_P1;SDS_P2;PMS_P1;PMS_P2;Temp;Humidity;BMP_temperature;BMP_pressure;BME280_temperature;BME280_humidity;BME280_pressure;Samples;Min_cycle;Max_cycle;Signal;HPM_P1;HPM_P2
2023/08/31 00:00:29;;;;;;;4.20;1.50;;;;;;;17.78;58.93;94247.25;5115925;27;20042;-76
2023/08/31 00:02:55;;;;;;;2.95;1.42;;;;;;;18.07;60.00;94275.25;5132720;27;20508;-76
2023/08/31 00:05:20;;;;;;;4.25;2.40;;;;;;;17.98;58.38;94263.25;5131095;27;20034;-76
2023/08/31 00:07:46;;;;;;;3.65;1.42;;;;;;;17.92;59.08;94258.75;5115502;27;20046;-76
2023/08/31 00:10:11;;;;;;;5.00;1.80;;;;;;;18.02;58.25;94275.81;5115523;27;20527;-76
2023/08/31 00:12:37;;;;;;;3.78;1.60;;;;;;;18.11;57.58;94271.28;5115320;27;20031;-76
2023/08/31 00:15:04;;;;;;;2.50;1.40;;;;;;;17.90;57.75;94234.47;5114354;27;20023;-76
2023/08/31 00:17:30;;;;;;;4.35;1.90;;;;;;;18.10;58.05;94272.25;5132656;27;20031;-76
2023/08/31 00:19:55;;;;;;;3.20;1.50;;;;;;;18.18;59.53;94285.28;5094993;28;20088;-76
2023/08/31 00:22:21;;;;;;;3.20;1.77;;;;;;;17.80;57.52;94226.84;5113084;28;20027;-76
2023/08/31 00:24:46;;;;;;;4.00;1.80;;;;;;;18.16;58.26;94283.84;5130131;27;20035;-75
2023/08/31 00:27:14;;;;;;;4.25;1.98;;;;;;;18.23;58.05;94284.75;5132209;27;20024;-76
2023/08/31 00:29:40;;;;;;;3.72;1.63;;;;;;;18.08;58.75;94258.53;5133341;27;20047;-76
2023/08/31 00:32:05;;;;;;;6.05;1.70;;;;;;;18.12;58.06;94286.03;5131192;27;20026;-75
2023/08/31 00:34:31;;;;;;;4.82;1.73;;;;;;;18.00;58.80;94282.28;5132045;27;20041;-76
2023/08/31 00:36:57;;;;;;;4.03;1.60;;;;;;;17.90;58.76;94293.06;5132841;27;20031;-76
2023/08/31 00:39:22;;;;;;;2.95;1.38;;;;;;;17.99;58.02;94288.50;5094826;28;20042;-77
2023/08/31 00:41:50;;;;;;;7.70;1.67;;;;;;;17.55;58.55;94257.84;5094250;28;20425;-76
2023/08/31 00:44:15;;;;;;;3.42;1.58;;;;;;;17.83;57.88;94293.00;5111333;28;20035;-75
2023/08/31 00:46:40;;;;;;;4.07;1.52;;;;;;;17.66;57.43;94267.88;5115680;27;20027;-76
2023/08/31 00:49:06;;;;;;;4.05;1.63;;;;;;;17.52;57.93;94264.28;5097701;27;20038;-76
2023/08/31 00:51:32;;;;;;;3.20;1.85;;;;;;;17.84;57.95;94297.25;5114548;27;20031;-75
2023/08/31 00:53:58;;;;;;;4.20;1.90;;;;;;;17.87;57.15;94288.19;5086244;28;20031;-76
2023/08/31 00:56:24;;;;;;;4.18;1.60;;;;;;;17.90;57.65;94287.00;5104281;27;20027;-76
2023/08/31 00:58:49;;;;;;;3.55;1.50;;;;;;;17.98;57.75;94303.47;5097475;27;20023;-76
2023/08/31 01:01:33;;;;;;;3.75;1.90;;;;;;;17.86;57.05;94270.81;5131134;27;20035;-76
2023/08/31 01:04:22;;;;;;;3.65;1.65;;;;;;;18.11;57.44;94308.06;5131466;27;20031;-76
2023/08/31 01:07:16;;;;;;;3.60;1.65;;;;;;;18.06;57.59;94295.47;5112432;28;20034;-76
2023/08/31 01:09:56;;;;;;;4.95;1.60;;;;;;;18.17;57.49;94303.88;5101576;28;20062;-76
2023/08/31 01:12:29;;;;;;;3.92;1.65;;;;;;;17.93;58.94;94305.84;5112089;28;20028;-75
2023/08/31 01:14:59;;;;;;;3.35;1.83;;;;;;;18.02;59.92;94312.59;5093894;28;20066;-76
2023/08/31 01:17:26;;;;;;;5.07;1.55;;;;;;;17.79;58.21;94286.47;5110976;28;20055;-76
2023/08/31 01:19:52;;;;;;;4.40;1.52;;;;;;;17.91;57.62;94301.75;5110666;28;20035;-76
2023/08/31 01:22:25;;;;;;;3.15;1.60;;;;;;;17.72;58.51;94293.44;5127303;27;20032;-76
2023/08/31 01:24:50;;;;;;;4.47;1.63;;;;;;;17.75;60.85;94302.78;5110443;28;20070;-76
2023/08/31 01:27:16;;;;;;;3.45;1.80;;;;;;;17.64;61.63;94294.34;5076902;28;20019;-76
2023/08/31 01:29:41;;;;;;;3.65;1.67;;;;;;;18.00;60.19;94319.06;5110693;28;20056;-75
2023/08/31 01:32:07;;;;;;;3.35;1.63;;;;;;;18.04;61.19;94322.94;5116333;27;20036;-76
2023/08/31 01:34:33;;;;;;;3.65;1.70;;;;;;;17.93;60.17;94323.41;5113922;27;20497;-75
2023/08/31 01:37:00;;;;;;;3.95;1.50;;;;;;;17.73;62.54;94295.06;5130998;27;20507;-76
2023/08/31 01:39:56;;;;;;;3.70;1.60;;;;;;;17.83;62.54;94306.13;5096918;27;20037;-76
2023/08/31 01:42:21;;;;;;;3.20;1.50;;;;;;;17.93;62.25;94316.34;5129566;27;20387;-75
2023/08/31 01:44:48;;;;;;;3.70;1.50;;;;;;;17.79;60.05;94291.72;5113726;27;20042;-76
2023/08/31 01:47:13;;;;;;;4.70;1.80;;;;;;;17.73;61.51;94316.06;5113949;27;20542;-76
2023/08/31 01:49:39;;;;;;;4.25;1.50;;;;;;;17.53;63.00;94312.38;5112033;27;20035;-76
2023/08/31 01:52:05;;;;;;;3.78;1.40;;;;;;;17.53;62.06;94318.44;5130885;27;20038;-76
2023/08/31 01:54:30;;;;;;;4.43;1.55;;;;;;;17.70;60.70;94315.63;5131940;27;20035;-76
2023/08/31 01:56:56;;;;;;;3.28;1.40;;;;;;;17.62;60.55;94329.66;5096585;27;20039;-76
2023/08/31 01:59:21;;;;;;;3.13;1.40;;;;;;;17.61;60.36;94314.91;5109097;28;20489;-77
2023/08/31 02:01:47;;;;;;;3.17;1.25;;;;;;;17.45;60.72;94300.16;5093189;28;20027;-75
2023/08/31 02:04:12;;;;;;;3.72;1.70;;;;;;;17.48;60.07;94309.47;5110028;28;20035;-76
2023/08/31 02:06:38;;;;;;;3.47;1.70;;;;;;;17.45;60.46;94315.91;5092983;28;20031;-76
2023/08/31 02:09:03;;;;;;;4.15;1.50;;;;;;;17.41;60.52;94310.22;5121256;28;20466;-76
2023/08/31 02:11:29;;;;;;;3.30;1.38;;;;;;;17.46;60.75;94327.22;5096128;27;20031;-75
2023/08/31 02:13:54;;;;;;;3.25;1.70;;;;;;;17.35;61.37;94329.28;5117220;27;20046;-75
2023/08/31 02:16:20;;;;;;;4.63;1.50;;;;;;;17.19;61.59;94287.50;5087682;28;20031;-76
2023/08/31 02:18:45;;;;;;;3.60;1.33;;;;;;;17.30;62.34;94302.78;5113755;27;20473;-76
2023/08/31 02:21:10;;;;;;;6.10;1.50;;;;;;;17.17;64.20;94321.78;5100264;27;20023;-76
2023/08/31 02:23:36;;;;;;;3.25;1.45;;;;;;;17.04;64.40;94303.19;5113399;27;20039;-76
2023/08/31 02:26:01;;;;;;;3.92;1.45;;;;;;;17.12;61.57;94315.44;5098160;27;20036;-75
2023/08/31 02:28:27;;;;;;;3.58;1.45;;;;;;;17.14;62.06;94318.69;5134417;27;20088;-76
2023/08/31 02:30:59;;;;;;;5.63;1.50;;;;;;;17.10;61.83;94322.66;5134176;27;20019;-76
2023/08/31 02:33:24;;;;;;;3.17;1.58;;;;;;;17.13;61.93;94332.78;5117525;27;20031;-76
2023/08/31 02:35:49;;;;;;;3.35;1.60;;;;;;;17.16;61.35;94314.91;5119376;27;20089;-76
2023/08/31 02:38:15;;;;;;;3.55;1.35;;;;;;;17.00;60.65;94282.75;5096829;28;20043;-76
2023/08/31 02:40:40;;;;;;;4.10;1.70;;;;;;;17.14;62.44;94329.19;5096552;28;20027;-75
2023/08/31 02:43:06;;;;;;;3.63;1.38;;;;;;;17.11;61.92;94322.50;5113935;28;20032;-76
2023/08/31 02:45:31;;;;;;;2.97;1.52;;;;;;;17.09;61.07;94326.28;5096067;28;20500;-75
2023/08/31 02:47:57;;;;;;;4.07;1.95;;;;;;;17.04;61.70;94337.31;5114660;27;20459;-75
2023/08/31 02:50:22;;;;;;;2.97;1.58;;;;;;;17.02;62.30;94341.94;5095867;28;20016;-76
2023/08/31 02:52:47;;;;;;;3.08;1.60;;;;;;;17.01;61.94;94345.53;5096430;28;20386;-76
2023/08/31 02:55:13;;;;;;;4.18;1.70;;;;;;;17.07;60.68;94341.38;5115450;27;20053;-76
2023/08/31 02:57:38;;;;;;;4.03;1.52;;;;;;;17.02;60.95;94338.47;5099807;27;20034;-76
2023/08/31 03:00:08;;;;;;;4.95;1.58;;;;;;;16.84;61.36;94305.50;5099888;27;20027;-75
2023/08/31 03:02:34;;;;;;;2.70;1.48;;;;;;;16.94;61.15;94323.66;5132621;27;20023;-76
2023/08/31 03:05:01;;;;;;;3.33;1.60;;;;;;;16.95;61.17;94338.38;5116694;27;20029;-75
2023/08/31 03:07:26;;;;;;;4.03;1.58;;;;;;;16.88;60.91;94330.41;5117137;27;20035;-76
2023/08/31 03:09:52;;;;;;;5.28;1.80;;;;;;;16.87;61.36;94349.75;5099506;27;20031;-75
2023/08/31 03:12:17;;;;;;;4.50;1.70;;;;;;;16.88;61.48;94353.19;5095188;28;20485;-76
2023/08/31 03:14:43;;;;;;;3.42;1.50;;;;;;;16.92;61.85;94347.41;5114377;28;20485;-75
2023/08/31 03:17:08;;;;;;;3.90;1.73;;;;;;;16.79;62.21;94335.88;5096318;28;20024;-76
2023/08/31 03:19:34;;;;;;;3.33;1.48;;;;;;;16.76;62.56;94331.78;5113098;28;20405;-75
2023/08/31 03:21:59;;;;;;;2.78;1.35;;;;;;;16.86;61.99;94366.50;5110747;27;20382;-75
2023/08/31 03:24:24;;;;;;;3.15;1.42;;;;;;;16.88;62.04;94372.38;5132950;27;20034;-76
2023/08/31 03:26:50;;;;;;;3.30;1.73;;;;;;;16.69;62.25;94372.81;5116171;27;20031;-75
2023/08/31 03:29:15;;;;;;;4.32;1.88;;;;;;;16.49;62.21;94335.75;5133429;27;20047;-75
2023/08/31 03:31:41;;;;;;;4.55;1.75;;;;;;;16.59;62.27;94367.81;5095610;28;20028;-75
2023/08/31 03:34:06;;;;;;;3.25;1.60;;;;;;;16.74;62.28;94371.31;5130022;27;20044;-75
2023/08/31 03:36:31;;;;;;;3.92;1.55;;;;;;;16.74;62.14;94373.09;5095842;28;20386;-76
2023/08/31 03:38:57;;;;;;;2.78;1.60;;;;;;;16.63;62.24;94373.50;5123856;27;20032;-75
2023/08/31 03:41:22;;;;;;;7.72;2.22;;;;;;;16.80;64.26;94367.22;5125589;27;20023;-76
2023/08/31 03:43:48;;;;;;;4.60;2.00;;;;;;;16.72;62.55;94369.84;5116951;27;21052;-75
2023/08/31 03:46:13;;;;;;;5.88;2.05;;;;;;;16.41;62.96;94344.50;5112541;28;20035;-75
2023/08/31 03:48:39;;;;;;;3.80;1.60;;;;;;;16.67;62.45;94388.72;5122561;27;20076;-75
2023/08/31 03:51:04;;;;;;;4.68;1.60;;;;;;;16.49;62.67;94373.28;5134591;27;20027;-75
2023/08/31 03:53:29;;;;;;;3.75;1.45;;;;;;;16.55;62.87;94374.41;5115548;27;20046;-75
2023/08/31 03:55:55;;;;;;;4.63;1.90;;;;;;;16.49;62.48;94368.03;5132985;27;20030;-76
2023/08/31 03:58:20;;;;;;;4.85;1.40;;;;;;;16.25;62.48;94341.97;5129647;27;20038;-76
2023/08/31 04:00:50;;;;;;;3.72;1.50;;;;;;;16.62;62.67;94395.47;5126328;27;20035;-75
2023/08/31 04:03:15;;;;;;;3.45;1.40;;;;;;;16.38;62.63;94371.06;5112791;27;20042;-76
2023/08/31 04:05:41;;;;;;;2.97;1.45;;;;;;;16.25;63.44;94376.06;5105506;27;20041;-76
2023/08/31 04:08:06;;;;;;;2.75;1.60;;;;;;;16.52;62.76;94411.44;5130898;27;20028;-75
2023/08/31 04:10:32;;;;;;;2.65;1.55;;;;;;;16.23;62.88;94378.03;5113518;27;20054;-76
2023/08/31 04:12:57;;;;;;;3.05;1.50;;;;;;;16.46;63.24;94405.06;5132444;27;20541;-75
2023/08/31 04:15:23;;;;;;;2.40;1.40;;;;;;;16.42;62.91;94403.78;5112188;27;20023;-75
2023/08/31 04:17:49;;;;;;;3.10;1.50;;;;;;;16.56;63.23;94420.59;5104520;28;20436;-76
2023/08/31 04:20:15;;;;;;;3.08;1.40;;;;;;;16.64;62.94;94435.47;5129939;27;20023;-76
2023/08/31 04:22:40;;;;;;;3.42;1.55;;;;;;;16.48;62.69;94416.19;5111117;28;20043;-76
2023/08/31 04:25:06;;;;;;;3.30;1.30;;;;;;;16.42;63.06;94414.28;5115810;27;20025;-75
2023/08/31 04:27:32;;;;;;;3.53;1.50;;;;;;;16.45;63.27;94392.97;5112780;27;20049;-76
2023/08/31 04:30:01;;;;;;;3.75;1.77;;;;;;;16.83;63.84;94442.09;5094563;28;20031;-76
2023/08/31 04:32:26;;;;;;;5.93;1.55;;;;;;;16.97;62.86;94439.53;5109103;27;20031;-75
2023/08/31 04:34:52;;;;;;;2.40;1.52;;;;;;;16.90;63.67;94443.03;5117816;27;20033;-75
2023/08/31 04:37:18;;;;;;;5.35;1.80;;;;;;;16.93;63.45;94438.22;5106363;27;20063;-76
2023/08/31 04:39:43;;;;;;;9.25;2.00;;;;;;;16.75;63.39;94420.13;5112074;27;20042;-75
2023/08/31 04:42:08;;;;;;;5.45;2.05;;;;;;;16.98;64.08;94435.09;5095595;27;20511;-75
2023/08/31 04:44:35;;;;;;;4.20;1.58;;;;;;;17.41;62.54;94441.47;5111666;27;20039;-75
2023/08/31 04:47:00;;;;;;;3.63;1.42;;;;;;;17.26;65.06;94422.25;5113859;27;20038;-75
2023/08/31 04:49:26;;;;;;;2.65;1.45;;;;;;;17.29;64.42;94413.19;5127902;27;20035;-75
2023/08/31 04:51:52;;;;;;;3.70;1.63;;;;;;;17.34;64.61;94424.81;5141479;27;20492;-76
2023/08/31 04:54:17;;;;;;;5.90;1.40;;;;;;;17.40;63.52;94444.28;5095927;27;20027;-76
2023/08/31 04:56:42;;;;;;;2.65;1.38;;;;;;;17.59;63.11;94450.84;5117133;27;20473;-76
2023/08/31 04:59:08;;;;;;;4.53;1.60;;;;;;;17.67;62.55;94456.00;5125871;27;20505;-76
2023/08/31 05:01:33;;;;;;;4.88;1.50;;;;;;;17.48;59.73;94410.06;5126213;27;20031;-76
2023/08/31 05:03:59;;;;;;;4.68;1.70;;;;;;;17.67;60.32;94439.44;5109811;28;20039;-76
2023/08/31 05:06:24;;;;;;;5.03;1.55;;;;;;;17.58;59.79;94417.69;5099880;28;20035;-76
2023/08/31 05:08:49;;;;;;;3.15;1.60;;;;;;;17.89;58.75;94454.34;5094044;28;20522;-76
2023/08/31 05:11:15;;;;;;;4.35;1.60;;;;;;;17.87;58.32;94419.56;5090764;27;20472;-76
2023/08/31 05:13:42;;;;;;;4.13;1.70;;;;;;;18.07;58.50;94428.50;5091839;27;20477;-75
2023/08/31 05:16:10;;;;;;;3.05;1.45;;;;;;;18.07;57.72;94431.13;5101285;27;20061;-75
2023/08/31 05:18:37;;;;;;;2.85;1.50;;;;;;;18.21;57.27;94411.09;5116262;27;20027;-76
2023/08/31 05:21:03;;;;;;;5.85;1.70;;;;;;;18.58;56.28;94443.47;5129760;27;20062;-76
2023/08/31 05:23:29;;;;;;;2.78;1.38;;;;;;;18.62;56.55;94446.56;5119119;27;20054;-76
2023/08/31 05:25:56;;;;;;;2.55;1.13;;;;;;;18.64;55.86;94400.66;5108263;27;20100;-75
2023/08/31 05:28:22;;;;;;;3.08;1.38;;;;;;;18.98;55.54;94443.94;5127572;27;20116;-76
2023/08/31 05:30:50;;;;;;;3.90;1.30;;;;;;;19.10;57.04;94431.91;5120316;27;20019;-76
2023/08/31 05:33:17;;;;;;;4.90;1.50;;;;;;;19.30;56.17;94426.00;5123622;27;20103;-75
2023/08/31 05:35:43;;;;;;;3.50;1.50;;;;;;;19.54;54.64;94420.31;5110892;27;20038;-76
2023/08/31 05:38:08;;;;;;;3.20;1.50;;;;;;;19.92;55.08;94449.00;5111156;27;20035;-76
2023/08/31 05:40:34;;;;;;;3.35;1.40;;;;;;;20.01;54.94;94444.38;5111133;27;20147;-75
2023/08/31 05:42:59;;;;;;;3.17;1.55;;;;;;;20.06;52.80;94436.72;5125032;27;20034;-76
2023/08/31 05:45:25;;;;;;;4.97;1.70;;;;;;;20.23;54.46;94450.41;5129512;27;20031;-74
2023/08/31 05:47:50;;;;;;;2.92;1.20;;;;;;;20.25;55.70;94424.63;5124589;27;20026;-78
2023/08/31 05:50:15;;;;;;;3.70;1.40;;;;;;;20.53;55.63;94454.41;5120175;27;20023;-76
2023/08/31 05:52:43;;;;;;;5.05;1.90;;;;;;;20.23;54.51;94421.38;5117889;27;20044;-76
2023/08/31 05:55:09;;;;;;;9.00;2.33;;;;;;;20.36;55.35;94437.25;5113044;27;20035;-76
2023/08/31 05:57:35;;;;;;;4.25;2.72;;;;;;;20.31;56.47;94451.03;5117260;27;20028;-76
2023/08/31 06:00:00;;;;;;;8.32;3.22;;;;;;;20.22;56.97;94461.94;5129737;27;20481;-76
2023/08/31 06:02:26;;;;;;;6.05;2.90;;;;;;;20.12;57.41;94461.50;5127513;27;20027;-76
2023/08/31 06:04:51;;;;;;;12.48;3.15;;;;;;;20.09;57.27;94458.22;5115820;27;20027;-76
2023/08/31 06:07:17;;;;;;;7.57;2.80;;;;;;;20.26;57.18;94468.47;5113886;28;20027;-78
2023/08/31 06:09:42;;;;;;;6.55;2.60;;;;;;;20.48;56.66;94467.34;5110665;28;20034;-78
2023/08/31 06:12:08;;;;;;;7.50;3.03;;;;;;;20.42;56.31;94467.31;5089922;28;20043;-77
2023/08/31 06:14:33;;;;;;;9.45;2.58;;;;;;;20.86;55.08;94472.19;5108425;28;20525;-77
2023/08/31 06:16:58;;;;;;;10.77;3.15;;;;;;;20.77;54.97;94457.53;5108280;28;20080;-77
2023/08/31 06:19:24;;;;;;;9.40;2.90;;;;;;;21.02;55.19;94452.53;5111591;28;20478;-78
2023/08/31 06:21:49;;;;;;;8.50;2.90;;;;;;;20.82;55.00;94455.13;5110501;28;20039;-77
2023/08/31 06:24:15;;;;;;;7.75;2.78;;;;;;;20.65;55.63;94473.13;5109491;28;20486;-77
2023/08/31 06:26:40;;;;;;;4.53;2.30;;;;;;;20.93;55.60;94480.13;5075756;28;20466;-77
2023/08/31 06:29:07;;;;;;;7.28;2.90;;;;;;;21.02;54.46;94463.09;5108929;28;20044;-77
2023/08/31 06:31:33;;;;;;;5.63;2.20;;;;;;;21.22;53.52;94455.19;5107291;28;20462;-77
2023/08/31 06:33:58;;;;;;;7.22;2.45;;;;;;;21.54;52.29;94471.31;5107485;28;20036;-77
2023/08/31 06:36:24;;;;;;;6.25;2.22;;;;;;;21.51;52.00;94488.41;5107976;28;20500;-78
2023/08/31 06:38:49;;;;;;;9.38;2.40;;;;;;;21.93;49.38;94444.06;5107955;28;20027;-78
2023/08/31 06:41:15;;;;;;;5.53;2.20;;;;;;;22.38;49.85;94488.34;5107813;28;20027;-77
2023/08/31 06:43:41;;;;;;;6.68;2.40;;;;;;;22.54;48.69;94479.97;5092296;28;20039;-78
2023/08/31 06:46:06;;;;;;;5.03;2.42;;;;;;;22.28;48.78;94478.19;5076098;28;20125;-77
2023/08/31 06:48:31;;;;;;;5.78;1.88;;;;;;;21.98;47.73;94493.66;5109721;28;20520;-78
2023/08/31 06:50:57;;;;;;;6.18;2.10;;;;;;;21.93;48.88;94483.72;5109732;28;20167;-78
2023/08/31 06:53:22;;;;;;;4.70;1.45;;;;;;;21.74;48.03;94476.59;5092813;28;20036;-78
2023/08/31 06:55:48;;;;;;;3.45;1.40;;;;;;;21.79;46.81;94490.84;5092797;28;20428;-78
2023/08/31 06:58:13;;;;;;;3.78;1.50;;;;;;;22.29;44.72;94485.94;5092783;28;20410;-77
2023/08/31 07:00:39;;;;;;;6.63;1.40;;;;;;;22.61;42.52;94486.03;5114879;27;20028;-77
2023/08/31 07:03:06;;;;;;;4.20;1.35;;;;;;;22.60;43.57;94476.47;5114634;28;20031;-78
2023/08/31 07:05:35;;;;;;;3.00;1.60;;;;;;;22.37;44.04;94492.00;5113614;28;20510;-78
2023/08/31 07:08:00;;;;;;;6.53;1.27;;;;;;;22.27;44.20;94493.25;5113329;28;20038;-78
2023/08/31 07:10:26;;;;;;;4.10;1.30;;;;;;;22.66;44.13;94501.28;5113276;28;20027;-78
2023/08/31 07:12:51;;;;;;;3.60;1.20;;;;;;;22.37;43.87;94412.63;5114390;28;20031;-78
2023/08/31 07:15:17;;;;;;;2.83;1.13;;;;;;;23.41;42.67;94499.72;5114760;28;20073;-78
2023/08/31 07:17:42;;;;;;;2.42;1.40;;;;;;;23.81;40.17;94485.38;5113123;28;20513;-78
2023/08/31 07:20:09;;;;;;;5.68;1.50;;;;;;;23.55;41.31;94497.78;5113175;28;20020;-78
2023/08/31 07:22:34;;;;;;;4.75;1.48;;;;;;;23.69;41.54;94510.97;5096325;28;20409;-79
2023/08/31 07:25:00;;;;;;;3.05;1.20;;;;;;;23.70;41.24;94475.44;5113111;28;20046;-78
2023/08/31 07:27:25;;;;;;;4.00;1.52;;;;;;;23.90;41.52;94493.88;5113156;28;20069;-78
2023/08/31 07:29:53;;;;;;;3.45;1.52;;;;;;;23.66;42.69;94503.44;5078443;28;20467;-78
2023/08/31 07:32:19;;;;;;;6.28;1.52;;;;;;;23.89;42.12;94505.53;5114414;28;20035;-78
2023/08/31 07:34:44;;;;;;;6.38;1.63;;;;;;;24.10;41.21;94515.75;5114171;28;20039;-78
2023/08/31 07:37:10;;;;;;;3.92;1.70;;;;;;;24.07;42.47;94506.41;5114658;28;20016;-78
2023/08/31 07:39:35;;;;;;;4.15;1.65;;;;;;;23.89;42.08;94510.84;5114350;28;20136;-79
2023/08/31 07:42:01;;;;;;;4.00;2.10;;;;;;;24.06;41.25;94506.59;5114298;28;20023;-78
2023/08/31 07:44:27;;;;;;;5.43;2.05;;;;;;;23.88;42.24;94512.69;5113975;28;20120;-79
2023/08/31 07:46:52;;;;;;;5.63;2.50;;;;;;;23.83;41.82;94510.66;5114241;28;20027;-79
2023/08/31 07:49:18;;;;;;;4.15;1.50;;;;;;;23.83;42.93;94513.31;5096077;28;20500;-79
2023/08/31 07:51:43;;;;;;;4.95;1.88;;;;;;;23.85;42.24;94502.50;5114146;28;20492;-79
2023/08/31 07:54:09;;;;;;;4.63;2.05;;;;;;;24.23;41.73;94515.63;5095537;28;20027;-79
2023/08/31 07:56:34;;;;;;;7.18;2.13;;;;;;;24.23;41.45;94506.84;5112480;28;20049;-79
2023/08/31 07:58:59;;;;;;;4.25;1.80;;;;;;;24.37;41.57;94520.81;5112523;28;20047;-79
2023/08/31 08:01:25;;;;;;;6.68;1.90;;;;;;;24.59;41.75;94521.22;5113949;28;20471;-79
2023/08/31 08:03:50;;;;;;;8.93;3.08;;;;;;;24.43;40.97;94501.34;5113619;28;20043;-80
2023/08/31 08:06:16;;;;;;;7.07;2.70;;;;;;;24.31;41.29;94515.34;5113772;28;20057;-79
2023/08/31 08:08:41;;;;;;;5.72;2.42;;;;;;;24.02;41.53;94510.72;5078328;28;20084;-80
2023/08/31 08:11:06;;;;;;;6.40;2.20;;;;;;;24.17;41.67;94518.34;5094291;28;20023;-77
2023/08/31 08:13:32;;;;;;;9.73;2.95;;;;;;;24.46;41.61;94523.00;5112074;28;20039;-79
2023/08/31 08:15:57;;;;;;;5.30;1.90;;;;;;;24.60;40.25;94517.53;5095170;28;20031;-80
2023/08/31 08:18:23;;;;;;;4.72;2.05;;;;;;;24.83;40.64;94516.88;5094960;28;20063;-80
2023/08/31 08:20:50;;;;;;;6.03;2.00;;;;;;;24.91;41.79;94514.72;5095160;28;20050;-80
2023/08/31 08:23:15;;;;;;;5.65;2.30;;;;;;;24.74;40.63;94513.72;5095375;28;20092;-80
2023/08/31 08:25:40;;;;;;;7.80;2.13;;;;;;;24.90;40.84;94507.78;5111979;28;20504;-80
2023/08/31 08:28:06;;;;;;;4.43;2.20;;;;;;;24.99;40.38;94510.97;5094838;28;20494;-80
2023/08/31 08:30:31;;;;;;;5.88;2.40;;;;;;;25.07;38.63;94507.16;5111811;28;20035;-79
2023/08/31 08:32:58;;;;;;;5.55;2.47;;;;;;;24.93;40.43;94510.00;5113250;28;20432;-80
2023/08/31 08:35:24;;;;;;;5.93;2.00;;;;;;;25.11;39.42;94503.03;5095249;28;20024;-80
2023/08/31 08:37:49;;;;;;;4.25;1.80;;;;;;;25.32;38.71;94496.44;5094516;28;20039;-80
2023/08/31 08:40:14;;;;;;;6.85;2.22;;;;;;;24.91;39.97;94495.31;5077638;28;20020;-79
2023/08/31 08:42:41;;;;;;;6.15;2.20;;;;;;;23.77;40.39;94505.44;5111449;28;20475;-79
2023/08/31 08:45:15;;;;;;;8.82;2.10;;;;;;;24.56;39.08;94489.81;5094508;28;20528;-79
2023/08/31 08:47:40;;;;;;;7.40;2.35;;;;;;;24.90;38.51;94507.78;5124278;27;20036;-80
2023/08/31 08:50:06;;;;;;;5.10;2.22;;;;;;;25.13;38.67;94504.44;5111126;28;20035;-80
2023/08/31 08:52:31;;;;;;;6.30;2.33;;;;;;;24.90;37.92;94478.56;5094586;28;20031;-80
2023/08/31 08:54:56;;;;;;;7.43;2.63;;;;;;;25.39;37.77;94500.63;5094452;28;20035;-80
2023/08/31 08:57:22;;;;;;;4.80;2.30;;;;;;;25.68;37.23;94492.03;5110367;28;20035;-79
2023/08/31 08:59:47;;;;;;;5.00;2.20;;;;;;;25.69;37.61;94493.66;5111272;28;20027;-80
2023/08/31 09:02:13;;;;;;;6.65;2.20;;;;;;;25.71;36.82;94467.63;5111318;28;20024;-80
2023/08/31 09:04:38;;;;;;;6.03;2.30;;;;;;;25.80;36.78;94485.69;5111234;28;20036;-80
2023/08/31 09:07:04;;;;;;;4.93;3.13;;;;;;;25.80;33.21;94480.38;5094375;28;20526;-80
2023/08/31 09:09:29;;;;;;;4.80;3.10;;;;;;;25.91;32.10;94465.50;5112739;28;20081;-80
2023/08/31 09:11:57;;;;;;;5.00;3.38;;;;;;;25.82;32.25;94491.59;5111282;28;20488;-80
2023/08/31 09:14:23;;;;;;;5.32;3.05;;;;;;;26.06;32.33;94478.34;5111109;28;20043;-80
2023/08/31 09:16:49;;;;;;;5.95;3.50;;;;;;;26.22;32.21;94487.50;5110856;28;20551;-81
2023/08/31 09:19:25;;;;;;;5.97;3.40;;;;;;;26.12;30.87;94473.94;5094371;28;20088;-81
2023/08/31 09:21:51;;;;;;;5.32;3.40;;;;;;;26.33;31.93;94483.19;5094207;28;20066;-81
2023/08/31 09:24:19;;;;;;;6.38;3.42;;;;;;;26.54;30.90;94482.63;5111094;28;20030;-80
2023/08/31 09:26:48;;;;;;;6.07;2.90;;;;;;;26.67;31.22;94471.72;5110898;28;20114;-80
2023/08/31 09:29:13;;;;;;;5.35;3.25;;;;;;;26.79;30.67;94481.53;5111124;28;20063;-81
2023/08/31 09:31:44;;;;;;;5.25;3.28;;;;;;;26.96;30.34;94485.06;5110546;28;20073;-81
2023/08/31 09:34:09;;;;;;;;;;;;;;;27.05;29.11;94485.50;5111202;28;20417;-80
2023/08/31 09:36:34;;;;;;;5.13;3.10;;;;;;;27.18;27.82;94479.94;5112215;28;19915;-80
2023/08/31 09:39:00;;;;;;;4.00;2.67;;;;;;;27.10;29.10;94480.28;5093712;28;20043;-81
2023/08/31 09:41:25;;;;;;;5.93;3.10;;;;;;;27.14;28.85;94482.22;5111070;28;20423;-81
2023/08/31 09:43:51;;;;;;;5.07;2.85;;;;;;;27.27;29.18;94485.69;5110544;28;20034;-81
2023/08/31 09:46:16;;;;;;;5.30;3.10;;;;;;;27.48;29.19;94477.00;5110464;28;20092;-81
2023/08/31 09:48:42;;;;;;;4.95;3.40;;;;;;;27.31;29.83;94481.50;5111754;28;20036;-81
2023/08/31 09:51:07;;;;;;;5.22;2.90;;;;;;;27.08;30.82;94475.19;5111964;28;20028;-81
2023/08/31 09:53:33;;;;;;;5.13;3.08;;;;;;;27.16;30.19;94477.50;5093634;28;20416;-81
2023/08/31 09:55:58;;;;;;;4.88;2.92;;;;;;;27.01;28.34;94469.19;5110386;28;20026;-81
2023/08/31 09:58:24;;;;;;;4.68;2.90;;;;;;;27.36;29.57;94473.59;5110343;28;20035;-81
2023/08/31 10:00:50;;;;;;;4.07;2.65;;;;;;;27.13;28.48;94466.47;5093498;28;20035;-81
2023/08/31 10:03:15;;;;;;;4.03;2.75;;;;;;;27.21;29.20;94468.78;5093506;28;20043;-81
2023/08/31 10:05:43;;;;;;;4.43;2.85;;;;;;;27.33;28.84;94480.22;5093186;28;20028;-81
2023/08/31 10:08:08;;;;;;;5.20;3.35;;;;;;;27.52;29.59;94464.00;5111462;28;20128;-81
2023/08/31 10:10:34;;;;;;;4.65;3.00;;;;;;;27.65;27.81;94462.88;5093429;28;20028;-81
2023/08/31 10:13:00;;;;;;;4.85;2.47;;;;;;;27.52;28.85;94480.81;5076225;28;20039;-81
2023/08/31 10:15:28;;;;;;;4.47;2.70;;;;;;;27.57;28.23;94472.88;5093410;28;20038;-81
2023/08/31 10:17:54;;;;;;;6.60;2.88;;;;;;;27.56;29.19;94471.28;5110073;28;20039;-82
2023/08/31 10:20:19;;;;;;;6.28;2.78;;;;;;;27.65;29.58;94477.03;5110102;28;20455;-81
2023/08/31 10:22:45;;;;;;;5.97;2.85;;;;;;;27.52;28.71;94461.31;5093154;28;20501;-81
2023/08/31 10:25:11;;;;;;;5.32;3.35;;;;;;;27.40;29.09;94470.19;5110150;28;20402;-81
2023/08/31 10:27:47;;;;;;;6.53;2.95;;;;;;;27.55;29.50;94467.00;5109872;28;20039;-81
2023/08/31 10:30:33;;;;;;;5.65;3.03;;;;;;;27.56;29.76;94460.63;5110287;28;20565;-82
2023/08/31 10:33:07;;;;;;;5.47;2.88;;;;;;;27.68;29.47;94473.06;5109747;28;20043;-82
2023/08/31 10:35:59;;;;;;;4.63;3.00;;;;;;;27.48;29.78;94479.69;5115390;28;20031;-81
2023/08/31 10:38:25;;;;;;;4.68;3.05;;;;;;;27.40;29.02;94480.06;5111236;28;20036;-78
2023/08/31 10:41:00;;;;;;;5.15;3.47;;;;;;;27.41;28.91;94484.34;5115478;28;20052;-78
2023/08/31 10:43:25;;;;;;;4.65;3.00;;;;;;;27.29;29.04;94457.72;5115568;28;20108;-78
2023/08/31 10:45:51;;;;;;;5.20;3.47;;;;;;;27.42;29.75;94482.50;5114068;28;20470;-79
2023/08/31 10:48:17;;;;;;;6.05;3.20;;;;;;;27.42;28.79;94480.63;5113968;28;20028;-80
2023/08/31 10:50:42;;;;;;;4.80;3.38;;;;;;;27.34;28.87;94475.69;5097131;28;20032;-79
2023/08/31 10:53:14;;;;;;;5.78;3.55;;;;;;;27.39;28.93;94481.94;5113665;28;20035;-78
2023/08/31 10:55:52;;;;;;;5.85;3.05;;;;;;;27.25;30.16;94469.13;5115057;28;20031;-79
2023/08/31 10:58:18;;;;;;;5.10;3.40;;;;;;;27.33;30.02;94479.38;5113697;28;20075;-79
2023/08/31 11:00:53;;;;;;;5.70;3.50;;;;;;;27.27;29.44;94478.47;5096780;28;20578;-79
2023/08/31 11:03:18;;;;;;;6.45;3.88;;;;;;;27.28;29.76;94476.66;5113653;28;20028;-78
2023/08/31 11:05:51;;;;;;;4.55;3.05;;;;;;;27.15;30.02;94465.19;5113582;28;20030;-79
2023/08/31 11:08:16;;;;;;;4.75;3.25;;;;;;;27.00;29.20;94472.09;5079516;28;20126;-80
2023/08/31 11:10:45;;;;;;;5.85;3.47;;;;;;;27.03;29.74;94469.75;5113446;28;20031;-80
2023/08/31 11:13:15;;;;;;;4.25;3.17;;;;;;;27.12;29.90;94487.00;5113207;28;20046;-80
2023/08/31 11:15:44;;;;;;;5.03;3.55;;;;;;;26.93;30.13;94482.88;5096388;28;20020;-80
2023/08/31 11:18:09;;;;;;;4.95;3.30;;;;;;;27.02;29.34;94476.13;5096928;28;20039;-80
2023/08/31 11:20:35;;;;;;;4.13;2.90;;;;;;;26.92;29.30;94475.94;5096297;28;20035;-79
2023/08/31 11:23:00;;;;;;;4.82;3.15;;;;;;;26.82;29.08;94465.06;5114768;28;20405;-79
2023/08/31 11:25:25;;;;;;;5.45;3.30;;;;;;;26.94;29.53;94473.81;5096376;28;20028;-80
2023/08/31 11:27:57;;;;;;;5.65;3.15;;;;;;;26.93;30.45;94475.69;5113129;28;20410;-79
2023/08/31 11:30:24;;;;;;;4.68;3.28;;;;;;;26.92;30.25;94468.75;5095917;28;20023;-80